createdAt,value
2023-01-13T00:03:53.644Z,8.9
2023-01-13T00:05:57.699Z,8.7
2023-01-13T00:08:01.713Z,8.8
2023-01-13T00:10:05.723Z,8.8
2023-01-13T00:14:16.766Z,8.7
2023-01-13T00:16:20.856Z,8.6
2023-01-13T00:18:24.795Z,8.7
2023-01-13T00:20:28.794Z,8.8
2023-01-13T00:22:32.841Z,8.6
2023-01-13T00:24:36.867Z,8.6
2023-01-13T00:26:40.822Z,8.4
2023-01-13T00:28:47.830Z,8.6
2023-01-13T00:30:51.964Z,8.7
2023-01-13T00:32:55.904Z,8.7
2023-01-13T00:45:43.151Z,8.9
2023-01-13T00:49:51.212Z,8.8
2023-01-13T00:56:06.211Z,8.7
2023-01-13T01:00:14.199Z,8.8
2023-01-13T01:02:18.270Z,8.6
2023-01-13T01:04:22.196Z,8.6
2023-01-13T01:06:26.204Z,8.7
2023-01-13T01:08:30.189Z,8.7
2023-01-13T01:10:37.193Z,8.6
2023-01-13T01:12:41.151Z,8.5
2023-01-13T01:14:45.248Z,8.5
2023-01-13T01:16:49.176Z,8.4
2023-01-13T01:18:53.129Z,8.4
2023-01-13T01:20:57.155Z,8.3
2023-01-13T01:23:01.123Z,8.4
2023-01-13T01:25:08.165Z,8.4
2023-01-13T01:27:12.123Z,8.5
2023-01-13T01:29:16.110Z,8.5
2023-01-13T01:32:23.562Z,8.6
2023-01-13T01:34:27.575Z,8.6
2023-01-13T01:36:31.593Z,8.5
2023-01-13T01:38:38.576Z,8.6
2023-01-13T01:40:42.557Z,8.6
2023-01-13T01:42:46.557Z,8.6
2023-01-13T01:46:54.578Z,8.5
2023-01-13T01:48:58.484Z,8.5
2023-01-13T01:51:02.504Z,8.5
2023-01-13T01:53:09.522Z,8.5
2023-01-13T01:55:13.508Z,8.5
2023-01-13T01:57:17.491Z,8.6
2023-01-13T01:59:21.491Z,8.6
2023-01-13T02:03:29.460Z,8.5
2023-01-13T02:05:33.464Z,8.5
2023-01-13T02:07:40.417Z,8.5
2023-01-13T02:09:44.432Z,8.4
2023-01-13T02:11:48.424Z,8.4
2023-01-13T02:20:04.344Z,8.3
2023-01-13T02:22:11.359Z,8.3
2023-01-13T02:24:15.318Z,8.3
2023-01-13T02:26:19.312Z,8.2
2023-01-13T02:27:22.772Z,8.3
2023-01-13T02:29:26.772Z,8.2
2023-01-13T02:31:30.821Z,8.3
2023-01-13T02:33:34.707Z,8.4
2023-01-13T02:35:41.729Z,8.4
2023-01-13T02:37:45.675Z,8.3
2023-01-13T02:39:49.683Z,8.3
2023-01-13T02:41:53.655Z,8.3
2023-01-13T03:00:32.478Z,8.3
2023-01-13T03:04:43.419Z,8.3
2023-01-13T03:08:51.406Z,8.3
2023-01-13T03:10:55.387Z,8.4
2023-01-13T03:15:03.350Z,8.4
2023-01-13T03:23:22.311Z,8.4
2023-01-13T03:26:29.823Z,8.3
2023-01-13T03:28:33.828Z,8.3
2023-01-13T03:30:37.879Z,8.2
2023-01-13T03:32:44.791Z,8.4
2023-01-13T03:34:48.769Z,8.4
2023-01-13T03:36:52.769Z,8.3
2023-01-13T03:41:00.754Z,8.4
2023-01-13T03:43:04.741Z,8.4
2023-01-13T03:45:08.727Z,8.4
2023-01-13T03:47:15.735Z,8.6
2023-01-13T03:51:23.751Z,8.6
2023-01-13T03:53:27.692Z,8.5
2023-01-13T03:57:35.713Z,8.4
2023-01-13T03:59:39.716Z,8.3
2023-01-13T04:03:50.733Z,8.5
2023-01-13T04:05:54.701Z,8.7
2023-01-13T04:07:58.693Z,8.6
2023-01-13T04:14:10.682Z,8.5
2023-01-13T04:16:17.673Z,8.6
2023-01-13T04:18:21.677Z,8.6
2023-01-13T04:20:25.651Z,8.5
2023-01-13T04:24:53.767Z,8.3
2023-01-13T04:26:57.769Z,8.3
2023-01-13T04:29:04.790Z,8.3
2023-01-13T04:31:08.775Z,8.3
2023-01-13T04:33:12.725Z,8.3
2023-01-13T04:35:16.727Z,8.3
2023-01-13T04:37:20.729Z,8.3
2023-01-13T04:39:24.718Z,8.3
2023-01-13T04:41:28.674Z,8.3
2023-01-13T04:43:35.689Z,8.3
2023-01-13T04:47:43.657Z,8.3
2023-01-13T04:51:53.168Z,8.2
2023-01-13T04:53:57.153Z,8.2
2023-01-13T04:56:01.153Z,8.1
2023-01-13T05:02:16.147Z,8
2023-01-13T05:04:20.078Z,8.1
2023-01-13T05:06:24.104Z,8.1
2023-01-13T05:08:28.055Z,8.1
2023-01-13T05:12:39.003Z,8
2023-01-13T05:14:42.972Z,8
2023-01-13T05:16:46.984Z,7.9
2023-01-13T05:19:54.479Z,8.2
2023-01-13T05:21:58.425Z,7.9
2023-01-13T05:24:02.411Z,7.9
2023-01-13T05:26:09.424Z,8
2023-01-13T05:28:13.399Z,8
2023-01-13T05:30:17.358Z,7.9
2023-01-13T05:32:21.363Z,8
2023-01-13T05:34:25.342Z,8.1
2023-01-13T05:36:29.305Z,8.1
2023-01-13T05:38:33.297Z,8
2023-01-13T05:40:40.269Z,7.8
2023-01-13T05:42:44.243Z,7.8
2023-01-13T05:44:48.221Z,7.7
2023-01-13T05:48:56.178Z,7.9
2023-01-13T05:51:00.144Z,7.9
2023-01-13T05:53:04.120Z,7.8
2023-01-13T05:57:15.100Z,7.9
2023-01-13T06:01:23.117Z,8
2023-01-13T06:03:27.019Z,8
2023-01-13T06:05:31.011Z,8
2023-01-13T06:07:34.986Z,8.2
2023-01-13T06:09:41.962Z,8.2
2023-01-13T06:11:45.936Z,8.1
2023-01-13T06:13:49.931Z,8.1
2023-01-13T06:14:53.406Z,8.2
2023-01-13T06:16:57.388Z,8.2
2023-01-13T06:19:01.375Z,8.1
2023-01-13T06:21:05.340Z,8
2023-01-13T06:23:12.346Z,7.9
2023-01-13T06:25:16.325Z,7.9
2023-01-13T06:27:20.326Z,7.9
2023-01-13T06:29:24.302Z,8
2023-01-13T06:31:28.279Z,8
2023-01-13T06:33:32.256Z,8.1
2023-01-13T06:35:36.248Z,8
2023-01-13T06:43:55.175Z,8.2
2023-01-13T06:50:07.145Z,8.1
2023-01-13T06:52:14.115Z,8.1
2023-01-13T06:54:18.112Z,8.2
2023-01-13T06:56:22.098Z,8.1
2023-01-13T06:58:26.077Z,8.1
2023-01-13T07:00:30.051Z,8.2
2023-01-13T07:02:34.072Z,8.2
2023-01-13T07:04:38.043Z,8.2
2023-01-13T07:06:45.039Z,8.2
2023-01-13T07:11:56.488Z,8.1
2023-01-13T07:14:00.495Z,8.2
2023-01-13T07:16:04.523Z,8.2
2023-01-13T07:18:08.485Z,8.3
2023-01-13T07:20:15.466Z,8.2
2023-01-13T07:22:19.456Z,8.3
2023-01-13T07:24:23.485Z,8.3
2023-01-13T07:26:27.451Z,8.2
2023-01-13T07:28:31.426Z,8.3
2023-01-13T07:30:35.415Z,8.3
2023-01-13T07:32:39.408Z,8.3
2023-01-13T07:34:46.400Z,8.3
2023-01-13T07:38:55.012Z,8.3
2023-01-13T07:40:58.379Z,8.3
2023-01-13T07:45:06.358Z,8.3
2023-01-13T07:47:10.383Z,8.4
2023-01-13T07:49:17.344Z,8.3
2023-01-13T07:51:21.343Z,8.3
2023-01-13T07:53:25.339Z,8.4
2023-01-13T07:59:37.299Z,8.4
2023-01-13T08:03:48.329Z,8.2
2023-01-13T08:07:56.294Z,8.2
2023-01-13T08:10:20.521Z,8.2
2023-01-13T08:12:24.500Z,8.2
2023-01-13T08:14:28.497Z,8.1
2023-01-13T08:16:35.534Z,8.1
2023-01-13T08:18:39.481Z,8.2
2023-01-13T08:20:43.470Z,8.2
2023-01-13T08:22:47.475Z,8.1
2023-01-13T08:24:51.479Z,8.1
2023-01-13T08:26:55.440Z,8.2
2023-01-13T08:28:59.459Z,8.2
2023-01-13T08:31:06.476Z,8.3
2023-01-13T08:33:10.414Z,8.4
2023-01-13T08:35:14.374Z,8.4
2023-01-13T08:37:18.361Z,8.5
2023-01-13T08:39:22.372Z,8.5
2023-01-13T08:41:26.357Z,8.5
2023-01-13T08:43:30.318Z,8.5
2023-01-13T08:51:49.278Z,8.4
2023-01-13T08:53:53.281Z,8.5
2023-01-13T08:58:14.522Z,8.3
2023-01-13T09:00:08.261Z,8.3
2023-01-13T09:02:12.367Z,8.3
2023-01-13T09:05:19.721Z,8.2
2023-01-13T09:07:23.723Z,8.2
2023-01-13T09:09:27.722Z,8.2
2023-01-13T09:11:31.741Z,8.2
2023-01-13T09:13:38.691Z,8.2
2023-01-13T09:15:43.005Z,8.2
2023-01-13T09:17:46.676Z,8.1
2023-01-13T09:19:50.661Z,7.9
2023-01-13T09:21:55.551Z,7.9
2023-01-13T09:23:59.504Z,7.7
2023-01-13T09:26:03.505Z,7.6
2023-01-13T09:32:18.460Z,7.4
2023-01-13T09:34:22.414Z,7.5
2023-01-13T09:36:26.401Z,7.4
2023-01-13T09:38:30.347Z,7.4
2023-01-13T09:40:34.346Z,7.4
2023-01-13T09:42:41.292Z,7.5
2023-01-13T09:46:49.227Z,7.6
2023-01-13T09:48:53.225Z,7.6
2023-01-13T09:50:57.168Z,7.5
2023-01-13T09:53:01.127Z,7.6
2023-01-13T09:55:05.081Z,7.6
2023-01-13T09:57:12.052Z,7.7
2023-01-13T09:59:16.026Z,7.7
2023-01-13T10:01:20.040Z,7.5
2023-01-13T10:02:23.475Z,7.5
2023-01-13T10:04:27.506Z,7.5
2023-01-13T10:06:31.384Z,7.5
2023-01-13T10:08:35.357Z,7.5
2023-01-13T10:10:42.347Z,7.5
2023-01-13T10:12:46.271Z,7.4
2023-01-13T10:14:50.242Z,7.5
2023-01-13T10:16:54.220Z,7.5
2023-01-13T10:18:58.163Z,7.5
2023-01-13T10:21:02.118Z,7.4
2023-01-13T10:23:06.113Z,7.5
2023-01-13T10:39:43.856Z,7.3
2023-01-13T10:41:47.796Z,7.3
2023-01-13T10:48:01.291Z,7
2023-01-13T10:54:26.452Z,6.8
2023-01-13T10:56:30.276Z,6.9
2023-01-13T10:58:24.135Z,7
2023-01-13T11:01:31.723Z,7.1
2023-01-13T11:03:35.553Z,7
2023-01-13T11:05:39.537Z,7.1
2023-01-13T11:09:50.451Z,7.3
2023-01-13T11:13:58.357Z,7.6
2023-01-13T11:16:02.425Z,7.4
2023-01-13T11:20:10.258Z,7.4
2023-01-13T11:22:17.222Z,7.5
2023-01-13T11:24:21.190Z,7.5
2023-01-13T11:26:25.153Z,7.5
2023-01-13T11:28:29.135Z,7.6
2023-01-13T11:30:33.079Z,7.5
2023-01-13T11:32:37.059Z,7.6
2023-01-13T11:34:41.010Z,7.7
2023-01-13T11:36:48.042Z,7.7
2023-01-13T11:38:51.984Z,7.7
2023-01-13T11:40:55.968Z,7.8
2023-01-13T11:42:59.961Z,7.8
2023-01-13T11:45:03.905Z,7.9
2023-01-13T11:47:07.909Z,7.9
2023-01-13T11:49:11.885Z,8
2023-01-13T11:51:18.868Z,8.1
2023-01-13T11:53:22.854Z,8
2023-01-13T11:57:51.131Z,8.2
2023-01-13T11:59:55.105Z,8.2
2023-01-13T12:01:59.166Z,8.2
2023-01-13T12:04:06.113Z,8.2
2023-01-13T12:06:10.103Z,8.2
2023-01-13T12:08:14.064Z,8.3
2023-01-13T12:10:18.103Z,8.3
2023-01-13T12:12:22.097Z,8.4
2023-01-13T12:14:26.059Z,8.4
2023-01-13T12:16:30.066Z,8.5
2023-01-13T12:22:45.047Z,8.5
2023-01-13T12:24:49.036Z,8.5
2023-01-13T12:26:53.027Z,8.6
2023-01-13T12:31:01.020Z,8.7
2023-01-13T12:33:08.001Z,8.7
2023-01-13T12:35:11.993Z,8.7
2023-01-13T12:37:15.991Z,8.7
2023-01-13T12:39:20.011Z,8.7
2023-01-13T12:41:23.999Z,8.8
2023-01-13T12:43:27.985Z,8.8
2023-01-13T12:47:39.016Z,8.8
2023-01-13T12:49:43.038Z,8.8
2023-01-13T12:51:46.999Z,8.9
2023-01-13T12:54:54.521Z,8.9
2023-01-13T12:59:02.535Z,9
2023-01-13T13:01:09.666Z,9
2023-01-13T13:03:13.543Z,9
2023-01-13T13:11:29.578Z,9.1
2023-01-13T13:13:33.595Z,9.1
2023-01-13T13:15:40.607Z,9.1
2023-01-13T13:17:44.594Z,9.1
2023-01-13T13:19:48.631Z,9.2
2023-01-13T13:21:52.636Z,9.2
2023-01-13T13:23:56.655Z,9.2
2023-01-13T13:26:00.681Z,9.3
2023-01-13T13:28:04.701Z,9.3
2023-01-13T13:30:11.693Z,9.4
2023-01-13T13:32:15.737Z,9.4
2023-01-13T13:34:19.733Z,9.3
2023-01-13T13:36:23.731Z,9.4
2023-01-13T13:38:27.751Z,9.4
2023-01-13T13:40:31.815Z,9.3
2023-01-13T13:42:35.803Z,9.4
2023-01-13T13:44:42.830Z,9.5
2023-01-13T13:48:50.885Z,9.5
2023-01-13T13:49:54.416Z,9.6
2023-01-13T13:51:58.477Z,9.5
2023-01-13T13:54:02.454Z,9.5
2023-01-13T13:56:06.414Z,9.5
2023-01-13T13:58:13.476Z,9.6
2023-01-13T14:00:17.481Z,9.6
2023-01-13T14:02:21.662Z,9.6
2023-01-13T14:04:25.534Z,9.6
2023-01-13T14:06:29.548Z,9.6
2023-01-13T14:08:33.557Z,9.6
2023-01-13T14:10:37.592Z,9.6
2023-01-13T14:12:44.593Z,9.7
2023-01-13T14:14:48.669Z,9.6
2023-01-13T14:16:52.672Z,9.6
2023-01-13T14:18:56.701Z,9.6
2023-01-13T14:21:00.726Z,9.7
2023-01-13T14:23:04.730Z,9.6
2023-01-13T14:25:08.757Z,9.6
2023-01-13T14:27:15.828Z,9.6
2023-01-13T14:29:19.823Z,9.6
2023-01-13T14:31:23.884Z,9.6
2023-01-13T14:33:27.899Z,9.5
2023-01-13T14:35:31.895Z,9.5
2023-01-13T14:37:35.941Z,9.5
2023-01-13T14:39:39.990Z,9.5
2023-01-13T14:45:55.056Z,9.5
2023-01-13T14:46:58.550Z,9.5
2023-01-13T14:49:02.589Z,9.5
2023-01-13T14:51:06.675Z,9.5
2023-01-13T14:53:10.645Z,9.5
2023-01-13T14:55:17.682Z,9.5
2023-01-13T14:57:21.760Z,9.4
2023-01-13T14:59:25.747Z,9.4
2023-01-13T15:01:29.924Z,9.4
2023-01-13T15:03:33.803Z,9.5
2023-01-13T15:05:37.820Z,9.5
2023-01-13T15:07:41.845Z,9.4
2023-01-13T15:11:52.912Z,9.4
2023-01-13T15:22:13.040Z,9.2
2023-01-13T15:32:36.176Z,9
2023-01-13T15:34:40.166Z,9
2023-01-13T15:36:44.179Z,8.9
2023-01-13T15:40:55.260Z,8.9
2023-01-13T15:42:59.254Z,8.9
2023-01-13T15:45:23.784Z,9
2023-01-13T15:47:27.816Z,9
2023-01-13T15:49:31.829Z,9
2023-01-13T15:51:38.847Z,9
2023-01-13T15:53:42.861Z,9
2023-01-13T15:55:46.854Z,9
2023-01-13T15:57:50.908Z,9.1
2023-01-13T15:59:54.871Z,9.1
2023-01-13T16:01:58.887Z,9.1
2023-01-13T16:04:02.909Z,9.1
2023-01-13T16:06:09.917Z,9.1
2023-01-13T16:08:13.954Z,9.1
2023-01-13T16:10:17.966Z,9.1
2023-01-13T16:12:21.972Z,9.2
2023-01-13T16:14:25.976Z,9.2
2023-01-13T16:16:30.047Z,9.2
2023-01-13T16:18:34.049Z,9.1
2023-01-13T16:20:41.044Z,8.9
2023-01-13T16:22:45.045Z,8.9
2023-01-13T16:24:49.090Z,9
2023-01-13T16:26:53.125Z,9
2023-01-13T16:28:57.192Z,9
2023-01-13T16:31:01.130Z,9
2023-01-13T16:33:05.201Z,9.1
2023-01-13T16:35:12.251Z,9.1
2023-01-13T16:37:16.262Z,9.1
2023-01-13T16:40:23.770Z,9
2023-01-13T16:44:33.390Z,9.1
2023-01-13T16:48:44.449Z,8.8
2023-01-13T16:50:48.445Z,8.8
2023-01-13T16:54:56.464Z,8.7
2023-01-13T16:57:00.484Z,8.7
2023-01-13T16:59:04.507Z,8.7
2023-01-13T17:01:08.699Z,8.7
2023-01-13T17:03:15.650Z,8.7
2023-01-13T17:07:23.572Z,8.8
2023-01-13T17:09:28.456Z,8.8
2023-01-13T17:13:36.442Z,8.8
2023-01-13T17:15:40.472Z,8.7
2023-01-13T17:21:55.517Z,8.7
2023-01-13T17:26:03.538Z,8.7
2023-01-13T17:28:07.547Z,8.7
2023-01-13T17:30:11.545Z,8.6
2023-01-13T17:32:18.567Z,8.5
2023-01-13T17:36:26.574Z,8.4
2023-01-13T17:39:34.120Z,8.3
2023-01-13T17:41:38.085Z,8.1
2023-01-13T17:43:42.091Z,8.2
2023-01-13T17:45:49.148Z,8.1
2023-01-13T17:47:53.093Z,8.1
2023-01-13T17:52:01.091Z,7.9
2023-01-13T17:54:05.087Z,7.9
2023-01-13T17:56:09.068Z,7.8
2023-01-13T17:58:13.051Z,7.8
2023-01-13T18:00:20.045Z,7.8
2023-01-13T18:02:24.217Z,7.8
2023-01-13T18:04:28.042Z,7.8
2023-01-13T18:06:32.058Z,7.8
2023-01-13T18:08:36.020Z,7.9
2023-01-13T18:10:40.001Z,7.8
2023-01-13T18:12:43.972Z,7.8
2023-01-13T18:14:50.932Z,7.9
2023-01-13T18:16:54.960Z,7.9
2023-01-13T18:18:58.907Z,7.9
2023-01-13T18:21:02.928Z,7.9
2023-01-13T18:23:06.924Z,7.9
2023-01-13T18:25:10.917Z,7.8
2023-01-13T18:27:14.872Z,7.9
2023-01-13T18:29:21.890Z,7.8
2023-01-13T18:31:25.830Z,7.9
2023-01-13T18:36:37.281Z,7.8
2023-01-13T18:38:41.267Z,7.9
2023-01-13T18:40:45.234Z,7.8
2023-01-13T18:42:52.320Z,7.7
2023-01-13T18:44:56.188Z,7.8
2023-01-13T18:47:00.182Z,7.8
2023-01-13T18:49:04.164Z,7.9
2023-01-13T18:51:08.142Z,7.8
2023-01-13T18:53:12.109Z,7.7
2023-01-13T18:55:16.089Z,7.6
2023-01-13T18:57:23.058Z,7.6
2023-01-13T18:59:27.021Z,7.7
2023-01-13T19:01:31.113Z,7.8
2023-01-13T19:03:34.982Z,7.7
2023-01-13T19:05:38.944Z,7.6
2023-01-13T19:07:42.915Z,7.5
2023-01-13T19:09:46.886Z,7.5
2023-01-13T19:11:53.880Z,7.4
2023-01-13T19:13:57.846Z,7.5
2023-01-13T19:16:01.851Z,7.4
2023-01-13T19:18:05.765Z,7.3
2023-01-13T19:20:09.734Z,7.3
2023-01-13T19:22:13.709Z,7.3
2023-01-13T19:24:17.666Z,7.4
2023-01-13T19:26:24.644Z,7.3
2023-01-13T19:28:28.586Z,7.3
2023-01-13T19:30:32.569Z,7.3
2023-01-13T19:32:56.883Z,7.2
2023-01-13T19:35:00.845Z,7.2
2023-01-13T19:37:04.813Z,7.2
2023-01-13T19:39:11.769Z,7.2
2023-01-13T19:41:15.724Z,7.1
2023-01-13T19:43:19.705Z,7.1
2023-01-13T19:47:27.583Z,7.1
2023-01-13T19:49:31.563Z,7.2
2023-01-13T19:51:35.513Z,7.3
2023-01-13T19:53:42.507Z,7.3
2023-01-13T19:55:46.421Z,7.2
2023-01-13T19:57:50.392Z,7.2
2023-01-13T19:59:54.347Z,7.2
2023-01-13T20:01:58.383Z,7.2
2023-01-13T20:04:02.249Z,7.3
2023-01-13T20:06:06.269Z,7.3
2023-01-13T20:08:13.219Z,7.4
2023-01-13T20:10:17.142Z,7.4
2023-01-13T20:22:43.894Z,7.4
2023-01-13T20:27:55.275Z,7.4
2023-01-13T20:29:59.256Z,7.4
2023-01-13T20:34:07.134Z,7.5
2023-01-13T20:36:14.116Z,7.6
2023-01-13T20:44:29.950Z,7.7
2023-01-13T20:46:33.963Z,7.6
2023-01-13T20:48:37.876Z,7.6
2023-01-13T20:50:44.855Z,7.5
2023-01-13T20:52:48.799Z,7.4
2023-01-13T20:54:52.762Z,7.5
2023-01-13T20:56:56.730Z,7.5
2023-01-13T20:59:00.699Z,7.6
2023-01-13T21:01:04.749Z,7.6
2023-01-13T21:03:08.616Z,7.5
2023-01-13T21:05:15.586Z,7.4
2023-01-13T21:07:19.536Z,7.5
2023-01-13T21:09:23.497Z,7.5
2023-01-13T21:11:27.441Z,7.5
2023-01-13T21:13:31.411Z,7.5
2023-01-13T21:15:35.350Z,7.4
2023-01-13T21:17:39.304Z,7.3
2023-01-13T21:19:46.286Z,7.4
2023-01-13T21:21:50.216Z,7.3
2023-01-13T21:23:54.195Z,7.5
2023-01-13T21:27:01.619Z,7.4
2023-01-13T21:29:05.584Z,7.4
2023-01-13T21:33:16.487Z,7.4
2023-01-13T21:35:20.431Z,7.4
2023-01-13T21:41:32.314Z,7.4
2023-01-13T21:43:36.282Z,7.6
2023-01-13T21:45:40.325Z,7.4
2023-01-13T21:47:47.208Z,7.3
2023-01-13T21:49:51.161Z,7.4
2023-01-13T22:00:10.981Z,7.4
2023-01-13T22:02:23.829Z,7.5
2023-01-13T22:04:21.889Z,7.4
2023-01-13T22:06:25.956Z,7.5
2023-01-13T22:08:29.804Z,7.4
2023-01-13T22:10:34.234Z,7.4
2023-01-13T22:12:37.722Z,7.4
2023-01-13T22:14:41.689Z,7.4
2023-01-13T22:16:48.763Z,7.4
2023-01-13T22:18:52.625Z,7.4
2023-01-13T22:20:56.571Z,7.3
2023-01-13T22:22:00.101Z,7.5
2023-01-13T22:24:04.054Z,7.6
2023-01-13T22:26:08.003Z,7.6
2023-01-13T22:28:11.925Z,7.5
2023-01-13T22:30:18.942Z,7.6
2023-01-13T22:32:22.895Z,7.6
2023-01-13T22:36:30.798Z,7.6
2023-01-13T22:38:34.904Z,7.7
2023-01-13T22:40:38.732Z,7.7
2023-01-13T22:42:44.269Z,7.6
2023-01-13T22:44:51.215Z,7.6
2023-01-13T22:46:55.158Z,7.6
2023-01-13T22:48:59.116Z,7.6
2023-01-13T22:51:03.072Z,7.6
2023-01-13T22:53:07.042Z,7.8
2023-01-13T22:55:11.007Z,7.9
2023-01-13T23:03:29.944Z,7.8
2023-01-13T23:05:33.818Z,7.7
2023-01-13T23:07:37.813Z,7.7
2023-01-13T23:09:41.767Z,7.8
2023-01-13T23:11:47.752Z,7.8
2023-01-13T23:13:52.710Z,7.7
2023-01-13T23:15:56.668Z,7.6
2023-01-13T23:18:00.638Z,7.8
2023-01-13T23:20:24.716Z,7.6
2023-01-13T23:22:28.679Z,7.6
2023-01-13T23:24:32.653Z,7.6
2023-01-13T23:26:39.604Z,7.5
2023-01-13T23:28:43.592Z,7.4
2023-01-13T23:30:47.567Z,7.4
2023-01-13T23:32:51.478Z,7.4
2023-01-13T23:39:03.354Z,7.5
2023-01-13T23:41:10.348Z,7.5
2023-01-13T23:43:14.302Z,7.5
2023-01-13T23:45:18.240Z,7.5
2023-01-13T23:47:22.185Z,7.4
2023-01-13T23:49:26.151Z,7.3
2023-01-13T23:51:30.227Z,7.2
2023-01-13T23:53:34.039Z,7.3
2023-01-13T23:55:40.997Z,7.2
2023-01-13T23:57:44.956Z,7.2
2023-01-13T23:59:48.986Z,7.1
